Latest Weather Observations for Williamtown

IDN60801

Issued at 9:03 pm EST Tuesday 28 June 2016 (issued every 30 minutes, with the page automatically refreshed every 10 minutes)

About weather observations | Map of weather stations | Latest weather observations for NSW | Other Formats
Station Details ID: 061078 Name: WILLIAMTOWN RAAF Lat: -32.79 Lon: 151.84 Height: 9.0 m
Data from the previous 72 hours. | See also: Recent months at Williamtown
Date/Time
EST
Temp
°C
App
Temp
°C
Dew
Point
°C
Rel
Hum
%
Delta-T
°C
Wind Press
QNH
hPa
Press
MSL
hPa
Rain since
9am
mm
Dir  Spd
km/h
Gust
km/h
Spd
kts
Gust
kts
28/09:00pm 7.0 2.4 3.7 79 1.4 WNW 17 17 9 9 1026.4 1026.4 0.0
28/08:30pm 7.2 3.5 4.2 81 1.3 WNW 13 15 7 8 1026.2 1026.2 0.0
28/08:00pm 7.6 3.8 4.1 78 1.5 WNW 13 15 7 8 1026.0 1026.0 0.0
28/07:30pm 7.8 4.4 3.8 76 1.7 WNW 11 11 6 6 1025.8 1025.8 0.0
28/07:00pm 8.1 4.3 3.9 75 1.8 WNW 13 15 7 8 1025.7 1025.7 0.0
28/06:30pm 8.6 5.6 4.2 74 1.9 NW 9 11 5 6 1025.3 1025.3 0.0
28/06:00pm 9.7 7.1 4.2 68 2.4 WSW 7 7 4 4 1025.1 1025.1 0.0
28/05:30pm 11.1 7.3 4.1 62 3.1 SSW 13 17 7 9 1024.5 1024.5 0.0
28/05:00pm 11.7 8.3 4.1 59 3.4 SSW 11 13 6 7 1024.2 1024.2 0.0
28/04:30pm 13.9 9.6 3.4 49 4.7 SSW 15 20 8 11 1024.0 1024.0 0.0
28/04:00pm 15.4 11.0 2.6 42 5.7 SSW 15 19 8 10 1023.6 1023.6 0.0
28/03:30pm 16.1 10.6 2.1 39 6.2 SW 20 28 11 15 1023.2 1023.2 0.0
28/03:00pm 16.6 10.7 1.7 36 6.6 SW 22 30 12 16 1022.8 1022.8 0.0
28/02:30pm 16.2 11.4 2.6 40 6.1 WSW 17 24 9 13 1022.6 1022.6 0.0
28/02:00pm 16.1 11.0 3.1 41 5.9 WSW 19 26 10 14 1022.5 1022.5 0.0
28/01:30pm 16.0 9.8 2.3 39 6.1 WSW 24 32 13 17 1022.3 1022.3 0.0
28/01:00pm 15.8 10.4 2.6 41 5.9 WSW 20 28 11 15 1022.2 1022.2 0.0
28/12:30pm 15.5 10.2 3.1 43 5.6 WSW 20 28 11 15 1022.2 1022.2 0.0
28/12:00pm 15.8 10.7 3.2 43 5.7 W 19 26 10 14 1022.3 1022.3 0.0
28/11:30am 14.8 8.7 2.6 44 5.4 W 24 35 13 19 1022.7 1022.7 0.0
28/11:00am 13.4 8.0 2.7 48 4.7 W 20 28 11 15 1023.1 1023.1 0.0
28/10:30am 12.7 5.8 2.3 49 4.5 WNW 28 37 15 20 1023.2 1023.2 0.0
28/10:00am 11.7 4.8 2.7 54 3.9 WNW 28 37 15 20 1023.0 1023.0 0.0
28/09:30am 10.3 3.3 1.7 55 3.6 WNW 28 35 15 19 1022.9 1022.9 0.0
28/09:00am 9.9 2.9 1.7 56 3.4 WNW 28 37 15 20 1022.4 1022.4 0.6
28/08:30am 9.1 2.1 1.9 60 3.0 WNW 28 35 15 19 1022.3 1022.3 0.6
28/08:00am 7.8 0.4 1.9 66 2.4 WNW 30 39 16 21 1021.6 1021.6 0.6
28/07:30am 7.3 0.7 2.2 70 2.1 WNW 26 35 14 19 1021.6 1021.6 0.6
28/07:00am 7.3 0.0 2.7 72 1.9 WNW 30 39 16 21 1021.1 1021.1 0.6
28/06:30am 7.1 0.4 3.6 78 1.5 WNW 28 35 15 19 1020.6 1020.6 0.6
28/06:00am 8.3 0.5 1.4 62 2.8 WNW 32 39 17 21 1020.1 1020.1 0.4
28/05:30am 8.2 0.4 1.6 63 2.7 WNW 32 43 17 23 1019.3 1019.3 0.4
28/05:00am 8.2 0.4 1.6 63 2.7 WNW 32 41 17 22 1018.9 1018.9 0.4
28/04:30am 8.3 0.5 2.0 64 2.6 WNW 32 43 17 23 1018.5 1018.5 0.4
28/04:00am 8.6 1.2 2.1 63 2.7 WNW 30 41 16 22 1018.1 1018.1 0.4
28/03:30am 8.6 1.3 2.4 65 2.6 WNW 30 39 16 21 1017.9 1017.9 0.4
28/03:00am 8.6 0.9 2.4 65 2.6 WNW 32 41 17 22 1017.9 1017.9 0.4
28/02:30am 8.6 1.0 2.7 66 2.5 WNW 32 44 17 24 1017.8 1017.8 0.4
28/02:00am 8.6 1.1 3.2 69 2.3 WNW 32 43 17 23 1017.6 1017.6 0.4
28/01:30am 8.4 0.9 3.5 71 2.1 WNW 32 43 17 23 1017.4 1017.4 0.4
28/01:00am 8.1 0.7 4.2 76 1.7 WNW 32 41 17 22 1017.3 1017.3 0.4
28/12:30am 8.5 1.8 3.9 73 2.0 WNW 28 33 15 18 1017.2 1017.2 0.2
28/12:00am 8.3 1.3 4.2 75 1.8 WNW 30 39 16 21 1017.1 1017.1 0.2
 
Date/Time
EST
Temp
°C
App
Temp
°C
Dew
Point
°C
Rel
Hum
%
Delta-T
°C
Wind Press
QNH
hPa
Press
MSL
hPa
Rain since
9am
mm
Dir  Spd
km/h
Gust
km/h
Spd
kts
Gust
kts
27/11:30pm 8.3 1.3 4.2 75 1.8 WNW 30 37 16 20 1017.2 1017.2 0.2
27/11:00pm 8.3 1.0 4.4 76 1.7 WNW 32 41 17 22 1017.1 1017.1 0.2
27/10:30pm 8.6 2.4 4.3 74 1.9 WNW 26 35 14 19 1017.0 1017.0 0.0
27/10:00pm 9.4 2.2 3.1 65 2.7 WNW 30 41 16 22 1016.6 1016.6 0.0
27/09:30pm 9.7 2.1 2.6 61 3.0 WNW 32 39 17 21 1016.5 1016.5 0.0
27/09:00pm 9.8 2.6 2.8 61 3.0 WNW 30 39 16 21 1016.4 1016.4 0.0
27/08:30pm 9.6 2.0 2.8 62 2.9 WNW 32 41 17 22 1016.4 1016.4 0.0
27/08:00pm 9.9 2.7 2.9 62 3.0 WNW 30 39 16 21 1016.4 1016.4 0.0
27/07:30pm 9.8 3.0 3.3 64 2.8 WNW 28 37 15 20 1016.3 1016.3 0.0
27/07:00pm 9.7 3.1 4.3 69 2.4 WNW 28 35 15 19 1016.0 1016.0 0.0
27/06:30pm 9.3 3.7 5.3 76 1.8 WNW 24 30 13 16 1015.9 1015.9 0.0
27/06:00pm 10.5 4.1 3.4 61 3.1 WNW 26 37 14 20 1015.7 1015.7 0.0
27/05:30pm 10.2 3.9 3.8 64 2.8 WNW 26 33 14 18 1015.3 1015.3 0.0
27/05:00pm 10.3 3.2 3.4 62 3.0 WNW 30 41 16 22 1014.8 1014.8 0.0
27/04:30pm 10.4 3.7 3.5 62 3.0 WNW 28 37 15 20 1014.4 1014.4 0.0
27/04:14pm 10.4 3.3 3.3 61 3.1 WNW 30 48 16 26 1014.3 1014.3 0.0
27/04:00pm 10.7 2.9 3.1 59 3.3 WNW 33 41 18 22 1014.2 1014.2 0.0
27/03:30pm 11.1 3.5 3.1 58 3.5 WNW 32 43 17 23 1013.9 1013.9 0.0
27/03:00pm 11.5 3.4 3.3 57 3.6 WNW 35 48 19 26 1013.6 1013.6 0.0
27/02:30pm 12.3 5.4 2.7 52 4.2 WNW 28 37 15 20 1013.4 1013.4 0.0
27/02:00pm 12.3 5.5 3.0 53 4.1 WNW 28 41 15 22 1013.3 1013.3 0.0
27/01:30pm 11.8 4.2 2.9 54 3.9 NW 32 48 17 26 1013.4 1013.4 0.0
27/01:00pm 12.1 4.2 2.4 51 4.2 WNW 33 43 18 23 1013.6 1013.6 0.0
27/12:30pm 12.2 5.5 3.4 55 3.9 WNW 28 37 15 20 1013.8 1013.8 0.0
27/12:00pm 11.9 4.7 3.0 54 3.9 WNW 30 39 16 21 1014.1 1014.1 0.0
27/11:30am 11.8 4.0 3.1 55 3.8 NW 33 44 18 24 1014.7 1014.7 0.0
27/11:00am 10.6 2.5 3.3 60 3.2 WNW 35 48 19 26 1015.1 1015.1 0.0
27/10:30am 10.7 4.3 3.4 60 3.2 WNW 26 37 14 20 1015.4 1015.4 0.0
27/10:00am 9.4 2.7 3.4 66 2.6 NW 28 35 15 19 1015.8 1015.8 0.0
27/09:30am 8.7 2.8 4.1 73 2.0 NW 24 33 13 18 1016.0 1016.0 0.0
27/09:00am 8.5 2.6 4.1 74 1.9 NW 24 35 13 19 1016.1 1016.1 0.0
27/08:30am 8.3 0.9 4.2 75 1.8 NW 32 41 17 22 1015.9 1015.9 0.0
27/08:00am 8.4 0.5 4.3 75 1.8 NW 35 48 19 26 1016.4 1016.4 0.0
27/07:30am 8.6 1.0 3.7 71 2.1 NW 33 41 18 22 1016.2 1016.2 0.0
27/07:00am 8.9 2.8 3.0 66 2.5 WNW 24 32 13 17 1015.9 1015.9 0.0
27/06:30am 8.3 3.6 3.4 71 2.1 NW 17 20 9 11 1015.6 1015.6 0.0
27/06:00am 8.2 4.0 3.8 74 1.9 NW 15 17 8 9 1015.3 1015.3 0.0
27/05:30am 7.9 4.8 3.7 75 1.8 NNW 9 13 5 7 1015.0 1015.0 0.0
27/05:00am 7.9 4.6 4.5 79 1.5 WNW 11 11 6 6 1014.9 1014.9 0.0
27/04:30am 8.3 4.9 3.9 74 1.9 NW 11 13 6 7 1015.0 1015.0 0.0
27/04:00am 8.9 4.9 2.8 65 2.6 NNW 13 17 7 9 1015.3 1015.3 0.0
27/03:30am 8.1 3.9 3.7 74 1.9 WNW 15 19 8 10 1015.2 1015.2 0.0
27/03:00am 8.3 4.0 3.4 71 2.1 W 15 19 8 10 1015.1 1015.1 0.0
27/02:30am 8.3 4.9 4.2 75 1.8 NW 11 13 6 7 1015.3 1015.3 0.0
27/02:00am 8.2 5.1 3.8 74 1.9 N 9 13 5 7 1015.3 1015.3 0.0
27/01:30am 7.8 4.9 4.4 79 1.5 NW 9 11 5 6 1015.3 1015.3 0.0
27/01:00am 7.8 4.5 4.6 80 1.4 NW 11 13 6 7 1015.6 1015.6 0.0
27/12:30am 8.2 5.2 4.1 75 1.8 WNW 9 11 5 6 1015.7 1015.7 0.0
27/12:00am 8.3 5.0 4.7 78 1.6 NW 11 11 6 6 1016.2 1016.2 0.0
 
Date/Time
EST
Temp
°C
App
Temp
°C
Dew
Point
°C
Rel
Hum
%
Delta-T
°C
Wind Press
QNH
hPa
Press
MSL
hPa
Rain since
9am
mm
Dir  Spd
km/h
Gust
km/h
Spd
kts
Gust
kts
26/11:30pm 8.7 4.9 4.1 73 2.0 NW 13 15 7 8 1016.4 1016.4 0.0
26/11:00pm 7.9 4.7 5.2 83 1.2 NNW 11 13 6 7 1016.6 1016.6 0.0
26/10:30pm 7.2 5.4 5.4 88 0.8 NW 4 9 2 5 1016.3 1016.3 0.0
26/10:00pm 8.1 5.7 5.4 83 1.2 ENE 7 9 4 5 1016.1 1016.1 0.0
26/09:30pm 8.9 7.4 5.1 77 1.7 NNW 2 7 1 4 1016.5 1016.5 0.0
26/09:00pm 8.8 6.4 5.2 78 1.6 NNW 7 7 4 4 1017.3 1017.3 0.0
26/08:30pm 8.5 6.1 5.1 79 1.5 NW 7 9 4 5 1017.9 1017.9 0.0
26/08:00pm 9.1 7.2 5.1 76 1.8 NE 4 9 2 5 1017.3 1017.3 0.0
26/07:30pm 10.0 7.1 4.6 69 2.4 NW 9 11 5 6 1017.7 1017.7 0.0
26/07:00pm 10.2 7.0 4.9 69 2.4 NNW 11 13 6 7 1017.5 1017.5 0.0
26/06:30pm 9.1 6.5 6.3 83 1.3 NNW 9 9 5 5 1017.5 1017.5 0.0
26/06:00pm 9.4 8.2 6.4 81 1.4 NNW 2 7 1 4 1017.5 1017.5 0.0
26/05:30pm 10.0 9.3 7.0 81 1.4 CALM 0 2 0 1 1016.8 1016.8 0.0
26/05:00pm 10.7 9.1 6.4 75 2.0 W 4 7 2 4 1016.8 1016.8 0.0
26/04:30pm 11.8 11.0 6.3 69 2.6 CALM 0 0 0 0 1016.7 1016.7 0.0
26/04:00pm 12.8 11.1 6.0 63 3.2 W 4 7 2 4 1016.8 1016.8 0.0
26/03:30pm 13.2 10.5 3.6 52 4.3 WNW 7 7 4 4 1017.1 1017.1 0.0
26/03:00pm 13.6 10.1 1.5 43 5.2 NNW 9 11 5 6 1017.6 1017.6 0.0
26/02:30pm 14.1 10.2 1.0 41 5.6 NW 11 13 6 7 1017.7 1017.7 0.0
26/02:00pm 14.4 10.8 0.8 39 5.8 WNW 9 13 5 7 1017.9 1017.9 0.0
26/01:30pm 14.4 10.4 0.8 39 5.8 NW 11 17 6 9 1018.1 1018.1 0.0
26/01:00pm 13.7 9.0 1.0 42 5.4 NW 15 19 8 10 1018.3 1018.3 0.0
26/12:30pm 12.0 7.3 1.0 47 4.6 NW 15 19 8 10 1018.7 1018.7 0.0
26/12:00pm 11.9 6.8 0.5 45 4.7 WNW 17 20 9 11 1019.2 1019.2 0.0
26/11:30am 11.2 5.7 0.5 47 4.4 NW 19 26 10 14 1019.8 1019.8 0.0
26/11:00am 10.6 4.1 0.5 49 4.1 WNW 24 33 13 18 1020.8 1020.8 0.0
26/10:30am 10.5 3.7 0.7 50 4.0 NW 26 32 14 17 1021.4 1021.4 0.0
26/10:00am 9.1 2.6 0.3 54 3.5 WNW 24 30 13 16 1021.9 1021.9 0.0
26/09:30am 7.5 1.4 0.4 61 2.8 WNW 22 30 12 16 1021.4 1021.4 0.0
26/09:00am 7.2 1.6 1.2 65 2.4 WNW 20 28 11 15 1021.5 1021.5 0.0
26/08:30am 5.7 0.0 0.5 69 2.0 WNW 20 28 11 15 1021.7 1021.7 0.0
26/08:00am 5.4 0.3 0.8 72 1.8 NW 17 26 9 14 1021.5 1021.5 0.0
26/07:30am 3.4 -1.3 0.8 83 1.0 NW 15 17 8 9 1021.5 1021.5 0.0
26/07:00am 3.8 -0.9 0.6 79 1.2 WNW 15 22 8 12 1021.3 1021.3 0.0
26/06:30am 3.6 -0.8 0.4 79 1.2 WNW 13 19 7 10 1021.2 1021.2 0.0
26/06:00am 3.5 -1.2 0.6 81 1.1 WNW 15 19 8 10 1021.0 1021.0 0.0
26/05:30am 4.2 -1.9 0.5 77 1.4 WNW 22 28 12 15 1020.9 1020.9 0.0
26/05:00am 4.5 -1.1 0.9 77 1.4 WNW 20 26 11 14 1020.5 1020.5 0.0
26/04:30am 4.7 -1.7 0.8 76 1.5 NW 24 32 13 17 1020.4 1020.4 0.0
26/04:00am 5.0 -1.4 0.9 75 1.6 WNW 24 30 13 16 1020.3 1020.3 0.0
26/03:30am 4.8 -0.7 0.9 76 1.5 WNW 19 28 10 15 1020.1 1020.1 0.0
26/03:00am 5.0 0.0 1.2 76 1.5 WNW 17 20 9 11 1019.8 1019.8 0.0
26/02:30am 5.3 -0.3 1.2 75 1.6 WNW 20 28 11 15 1020.0 1020.0 0.0
26/02:00am 6.0 0.6 1.2 71 1.9 WNW 19 26 10 14 1020.4 1020.4 0.0
26/01:30am 6.1 0.5 1.0 70 2.0 WNW 20 26 11 14 1020.5 1020.5 0.0
26/01:00am 5.4 0.0 1.0 73 1.7 WNW 19 26 10 14 1020.8 1020.8 0.0
26/12:30am 6.0 -0.4 1.2 71 1.9 WNW 24 30 13 16 1021.1 1021.1 0.0
26/12:00am 5.7 -0.3 0.8 71 1.9 WNW 22 28 12 15 1021.3 1021.3 0.0
 
Date/Time
EST
Temp
°C
App
Temp
°C
Dew
Point
°C
Rel
Hum
%
Delta-T
°C
Wind Press
QNH
hPa
Press
MSL
hPa
Rain since
9am
mm
Dir  Spd
km/h
Gust
km/h
Spd
kts
Gust
kts
25/11:30pm 5.4 -0.1 0.8 72 1.8 WNW 19 26 10 14 1021.0 1021.0 0.0
25/11:00pm 5.5 -0.2 0.6 71 1.9 WNW 20 26 11 14 1020.7 1020.7 0.0
25/10:30pm 5.4 -0.1 0.5 71 1.9 WNW 19 24 10 13 1020.8 1020.8 0.0
25/10:00pm 5.2 0.0 0.2 70 1.9 WNW 17 22 9 12 1020.8 1020.8 0.0
25/09:30pm 4.8 -0.3 0.6 74 1.6 WNW 17 19 9 10 1020.7 1020.7 0.0

Other Formats:

Comma delimited format used in spreadsheet applications
http://www.bom.gov.au/fwo/IDN60801/IDN60801.94776.axf

JavaScript Object Notation format (JSON) in row-major order
http://www.bom.gov.au/fwo/IDN60801/IDN60801.94776.json